createdAt,value
2019-04-20T00:04:43.063Z,781.03
2019-04-20T00:10:00.452Z,443.27
2019-04-20T00:20:14.465Z,598.70
2019-04-20T00:25:44.417Z,471.00
2019-04-20T00:31:04.605Z,573.33
2019-04-20T00:46:09.217Z,578.90
2019-04-20T00:51:39.369Z,388.95
2019-04-20T01:01:46.235Z,387.63
2019-04-20T01:07:05.661Z,253.67
2019-04-20T01:17:12.176Z,334.30
2019-04-20T01:22:23.328Z,435.03
2019-04-20T01:27:39.840Z,634.50
2019-04-20T01:32:51.731Z,542.60
2019-04-20T01:38:04.242Z,330.73
2019-04-20T01:42:51.198Z,378.90
2019-04-20T01:47:59.447Z,568.20
2019-04-20T01:53:18.927Z,454.50
2019-04-20T01:58:36.375Z,725.80
2019-04-20T02:03:48.164Z,707.97
2019-04-20T02:08:58.223Z,616.17
2019-04-20T02:14:04.611Z,496.73
2019-04-20T02:19:22.946Z,594.20
2019-04-20T02:24:19.912Z,432.70
2019-04-20T02:29:50.337Z,586.40
2019-04-20T02:35:17.808Z,538.13
2019-04-20T02:40:45.206Z,603.60
2019-04-20T02:45:47.279Z,477.60
2019-04-20T02:50:58.986Z,581.93
2019-04-20T03:01:07.099Z,301.30
2019-04-20T03:06:06.226Z,214.87
2019-04-20T03:16:24.302Z,86.93
2019-04-20T03:21:37.777Z,46.60
2019-04-20T03:32:46.311Z,30.30
2019-04-20T03:37:21.734Z,298.68
2019-04-20T03:42:05.226Z,155.47
2019-04-20T03:47:22.614Z,233.67
2019-04-20T03:58:02.824Z,64.33
2019-04-20T04:08:24.796Z,26.93
2019-04-20T04:13:21.082Z,22.53
2019-04-20T04:23:49.120Z,22.30
2019-04-20T04:29:02.742Z,20.30
2019-04-20T04:34:10.779Z,20.68
2019-04-20T04:44:22.132Z,20.67
2019-04-20T04:49:23.603Z,20.30
2019-04-20T04:59:27.693Z,22.27
2019-04-20T05:05:10.366Z,20.87
2019-04-20T05:09:59.134Z,20.60
2019-04-20T05:15:14.306Z,20.30
2019-04-20T05:20:37.231Z,19.43
2019-04-20T05:25:36.660Z,20.07
2019-04-20T05:35:58.989Z,20.63
2019-04-20T05:41:01.873Z,21.80
2019-04-20T05:46:17.833Z,21.03
2019-04-20T05:51:26.913Z,20.93
2019-04-20T05:56:33.074Z,22.07
2019-04-20T06:01:42.353Z,21.20
2019-04-20T06:06:44.376Z,19.47
2019-04-20T06:12:08.049Z,20.77
2019-04-20T06:17:01.916Z,21.23
2019-04-20T06:22:24.694Z,20.08
2019-04-20T06:27:25.862Z,20.43
2019-04-20T06:32:33.590Z,20.25
2019-04-20T06:37:40.428Z,19.73
2019-04-20T06:42:48.244Z,19.80
2019-04-20T06:53:12.916Z,19.67
2019-04-20T06:58:27.958Z,20.40
2019-04-20T07:03:37.519Z,21.03
2019-04-20T07:13:28.852Z,20.90
2019-04-20T07:19:00.749Z,20.40
2019-04-20T07:24:17.124Z,20.60
2019-04-20T07:29:20.997Z,19.43
2019-04-20T07:39:40.204Z,20.20
2019-04-20T07:44:50.803Z,20.07
2019-04-20T07:49:53.827Z,20.20
2019-04-20T07:55:17.300Z,19.73
2019-04-20T08:00:06.117Z,19.10
2019-04-20T08:05:14.171Z,18.27
2019-04-20T08:10:11.121Z,19.03
2019-04-20T08:20:43.112Z,18.40
2019-04-20T08:25:41.861Z,18.57
2019-04-20T08:31:07.948Z,18.77
2019-04-20T08:36:17.110Z,18.23
2019-04-20T08:41:20.708Z,20.33
2019-04-20T08:46:53.521Z,19.32
2019-04-20T08:52:05.871Z,19.67
2019-04-20T08:56:46.974Z,19.10
2019-04-20T09:07:05.601Z,22.42
2019-04-20T09:12:20.877Z,18.50
2019-04-20T09:17:23.007Z,18.10
2019-04-20T09:22:38.782Z,17.33
2019-04-20T09:27:48.159Z,17.83
2019-04-20T09:38:15.527Z,19.03
2019-04-20T09:48:40.796Z,17.95
2019-04-20T09:53:51.491Z,17.10
2019-04-20T09:59:08.192Z,17.40
2019-04-20T10:09:05.022Z,17.40
2019-04-20T10:14:10.640Z,15.98
2019-04-20T10:24:24.433Z,17.30
2019-04-20T10:29:31.338Z,16.57
2019-04-20T10:34:38.753Z,16.63
2019-04-20T10:39:46.670Z,16.97
2019-04-20T10:44:55.884Z,15.13
2019-04-20T10:50:00.860Z,19.63
2019-04-20T11:10:31.933Z,18.47
2019-04-20T11:15:36.645Z,17.17
2019-04-20T11:20:43.623Z,17.83
2019-04-20T11:25:50.510Z,16.33
2019-04-20T11:30:56.485Z,16.00
2019-04-20T11:36:03.229Z,18.47
2019-04-20T11:41:16.495Z,16.13
2019-04-20T11:51:23.370Z,17.13
2019-04-20T11:56:34.820Z,16.90
2019-04-20T12:01:55.071Z,16.40
2019-04-20T12:06:57.076Z,17.37
2019-04-20T12:12:16.840Z,17.13
2019-04-20T12:17:11.496Z,17.13
2019-04-20T12:32:36.429Z,18.32
2019-04-20T12:37:38.983Z,17.87
2019-04-20T12:42:45.077Z,18.37
2019-04-20T12:52:58.820Z,18.47
2019-04-20T12:58:05.273Z,19.52
2019-04-20T13:03:11.676Z,15.70
2019-04-20T13:08:21.727Z,17.63
2019-04-20T13:13:30.470Z,16.77
2019-04-20T13:18:41.266Z,16.77
2019-04-20T13:23:47.378Z,16.77
2019-04-20T13:28:53.356Z,16.30
2019-04-20T13:33:59.333Z,16.43
2019-04-20T13:39:06.057Z,17.33
2019-04-20T13:44:12.057Z,16.87
2019-04-20T13:49:18.803Z,15.77
2019-04-20T14:00:00.065Z,20.15
2019-04-20T14:05:06.763Z,119.75
2019-04-20T14:15:20.287Z,78.73
2019-04-20T14:20:27.148Z,55.73
2019-04-20T14:25:33.339Z,119.83
2019-04-20T14:30:40.242Z,104.03
2019-04-20T14:35:50.582Z,97.13
2019-04-20T14:40:58.065Z,139.30
2019-04-20T14:46:05.045Z,90.03
2019-04-20T14:51:11.823Z,61.33
2019-04-20T14:56:19.681Z,70.30
2019-04-20T15:01:34.709Z,48.47
2019-04-20T15:06:40.766Z,67.93
2019-04-20T15:16:56.374Z,37.13
2019-04-20T15:22:05.455Z,45.90
2019-04-20T15:27:12.238Z,83.33
2019-04-20T15:32:18.776Z,32.25
2019-04-20T15:37:24.821Z,32.30
2019-04-20T15:42:33.192Z,26.93
2019-04-20T15:47:40.283Z,27.40
2019-04-20T15:57:55.552Z,41.17
2019-04-20T16:03:03.327Z,40.83
2019-04-20T16:08:22.023Z,27.97
2019-04-20T16:23:46.368Z,55.33
2019-04-20T16:39:09.718Z,87.00
2019-04-20T16:44:15.959Z,69.67
2019-04-20T16:59:40.124Z,39.05
2019-04-20T17:09:54.031Z,95.17
2019-04-20T17:15:01.375Z,70.00
2019-04-20T17:20:09.307Z,70.20
2019-04-20T17:25:16.942Z,126.12
2019-04-20T17:30:27.772Z,113.75
2019-04-20T17:35:50.324Z,85.23
2019-04-20T17:46:02.230Z,127.10
2019-04-20T17:51:25.398Z,86.37
2019-04-20T18:06:50.212Z,1215.85
2019-04-20T18:11:50.198Z,1260.80
2019-04-20T18:22:11.783Z,1134.38
2019-04-20T18:32:45.244Z,1022.05
2019-04-20T18:37:59.309Z,965.93
2019-04-20T18:43:07.278Z,905.73
2019-04-20T18:48:33.501Z,886.47
2019-04-20T18:58:27.156Z,795.80
2019-04-20T19:03:38.479Z,760.83
2019-04-20T19:08:46.356Z,747.63
2019-04-20T19:13:55.965Z,715.10
2019-04-20T19:19:28.560Z,761.83
2019-04-20T19:24:29.570Z,650.33
2019-04-20T19:29:40.401Z,734.97
2019-04-20T19:34:57.048Z,650.07
2019-04-20T19:55:40.529Z,764.10
2019-04-20T20:00:32.424Z,598.97
2019-04-20T20:05:43.622Z,599.73
2019-04-20T20:10:46.566Z,707.83
2019-04-20T20:16:00.250Z,601.10
2019-04-20T20:21:19.073Z,709.45
2019-04-20T20:31:23.522Z,579.87
2019-04-20T20:36:30.788Z,462.67
2019-04-20T20:41:43.489Z,453.90
2019-04-20T20:52:08.321Z,481.80
2019-04-20T20:57:03.576Z,451.07
2019-04-20T21:02:08.862Z,547.67
2019-04-20T21:07:11.079Z,474.60
2019-04-20T21:12:21.601Z,621.83
2019-04-20T21:17:39.145Z,539.23
2019-04-20T21:22:55.082Z,658.20
2019-04-20T21:27:50.816Z,730.17
2019-04-20T21:33:07.822Z,549.67
2019-04-20T21:43:27.947Z,669.50
2019-04-20T21:48:43.583Z,897.30
2019-04-20T21:53:40.601Z,763.83
2019-04-20T21:58:54.630Z,777.87
2019-04-20T22:09:07.718Z,857.83
2019-04-20T22:14:23.920Z,610.60
2019-04-20T22:19:40.116Z,858.07
2019-04-20T22:24:53.985Z,821.23
2019-04-20T22:29:46.080Z,778.20
2019-04-20T22:34:57.161Z,669.17
2019-04-20T22:40:01.187Z,1032.20
2019-04-20T22:45:11.891Z,1092.77
2019-04-20T22:50:31.887Z,769.10
2019-04-20T22:55:47.232Z,951.37
2019-04-20T23:00:39.640Z,831.10
2019-04-20T23:05:38.721Z,773.70
2019-04-20T23:10:48.008Z,826.73
2019-04-20T23:15:59.147Z,711.23
2019-04-20T23:21:11.900Z,832.53
2019-04-20T23:26:16.870Z,628.10
2019-04-20T23:31:25.571Z,452.33
2019-04-20T23:41:41.518Z,321.50
2019-04-20T23:47:02.081Z,674.80
2019-04-20T23:52:28.077Z,370.70
